Fairchance, Pennsylvania
Current Conditions -  °F | °C
As of 12:53 PM on Monday 22 Dec 2014 (Local Time) from KMGW Reporting Station
Clear Clear  
Wind Chill: 40°   Ceiling: Unl
Heat Index: 45°   Visibility: 10mi
Dew Point: 28°   Wind: 10mph
Humidity: 52%   Direction: 130°SE
Pressure: 30.04"   Gusts: NA
Location:  39.82°N, 79.75°W
Report Text: KMGW 221753Z 13009KT 10SM CLR 07/M02 A3004 RMK AO2 SLP179 T00721022 10078 21006 58027
Loading
Personal Weather Stations






























Interactive Weather Map New forecast layout! Learn more

10-Day Weather Forecast

Advertisements
Track Severe Weather on mobile